X  Close Metar Aviation Weather Data        EGLF Farnborough
Temperature
22°C Temperature
15°C Dewpoint
65% Humidity



Wind
7 MPH
11 KM/H
3 M/S
6 KTS



240°
WSW
Current Conditions

Cloudy Cloudy
Pressure 1015 (hPa) - 29.97 (inHg)
Visibility 30 (mile) - 48 (km)
Airport
Airport-code EGLF

Location: Farnborough
Distance: 5 (mi)

Metar:
METAR EGLF 241550Z AUTO 24006KT 9999 OVC034/// 22/15 Q1015

Time: 24-09-2021 16:50 BST